RRR6222 EGVN-KPSM
Flight info
| Callsign | RRR6222 |
|---|---|
| Flight time | N/A |
| Altitude | 32000 |
| Route | CONKO Q63 ZIPWE DCT CML DCT SHA DCT GISTI DCT MALOT/M074F340 NATF ELSIR/N0430F340 DCT TOPPS DCT BGR DCT ENE |
| Aircraft | C17/H-SGHIRWXY/LB1 |
Departure
| Time | 2026-05-09 09:32 |
|---|---|
| Airport | RAF Brize Norton (EGVN) |
Arrival
| Time | N/A |
|---|---|
| Airport | Portsmouth International Airport at Pease (KPSM) |
| Time | Latitude | Longitude | Altitude | Speed | Heading |
|---|---|---|---|---|---|
| 2026-05-09 09:16 | 51.75727 | -1.57469 | 262 ft | 0 kts | 108° |
| 2026-05-09 09:22 | 51.75726 | -1.57468 | 262 ft | 1 kts | 108° |
| 2026-05-09 09:22 | 51.75719 | -1.57427 | 260 ft | 5 kts | 101° |
| 2026-05-09 09:22 | 51.75727 | -1.57369 | 260 ft | 4 kts | 31° |
| 2026-05-09 09:23 | 51.75769 | -1.57348 | 260 ft | 9 kts | 20° |
| 2026-05-09 09:23 | 51.75854 | -1.57301 | 260 ft | 17 kts | 17° |
| 2026-05-09 09:23 | 51.75921 | -1.57309 | 260 ft | 7 kts | 299° |
| 2026-05-09 09:23 | 51.75931 | -1.57385 | 260 ft | 7 kts | 276° |
| 2026-05-09 09:24 | 51.75930 | -1.57466 | 262 ft | 8 kts | 253° |
| 2026-05-09 09:24 | 51.75886 | -1.57522 | 260 ft | 9 kts | 198° |
| 2026-05-09 09:24 | 51.75815 | -1.57563 | 260 ft | 13 kts | 199° |
| 2026-05-09 09:24 | 51.75721 | -1.57612 | 260 ft | 16 kts | 197° |
| 2026-05-09 09:25 | 51.75608 | -1.57670 | 260 ft | 19 kts | 198° |
| 2026-05-09 09:25 | 51.75485 | -1.57763 | 260 ft | 21 kts | 206° |
| 2026-05-09 09:25 | 51.75350 | -1.57877 | 261 ft | 23 kts | 208° |
| 2026-05-09 09:25 | 51.75258 | -1.57958 | 261 ft | 9 kts | 208° |
| 2026-05-09 09:26 | 51.75240 | -1.57974 | 261 ft | 1 kts | 208° |
| 2026-05-09 09:26 | 51.75217 | -1.57994 | 261 ft | 6 kts | 208° |
| 2026-05-09 09:26 | 51.75159 | -1.58040 | 261 ft | 12 kts | 206° |
| 2026-05-09 09:26 | 51.75104 | -1.58089 | 261 ft | 15 kts | 210° |
| 2026-05-09 09:27 | 51.74953 | -1.58220 | 262 ft | 22 kts | 208° |
| 2026-05-09 09:27 | 51.74807 | -1.58344 | 260 ft | 25 kts | 207° |
| 2026-05-09 09:27 | 51.74658 | -1.58509 | 260 ft | 25 kts | 242° |
| 2026-05-09 09:27 | 51.74606 | -1.58755 | 260 ft | 22 kts | 253° |
| 2026-05-09 09:28 | 51.74563 | -1.58985 | 260 ft | 20 kts | 253° |
| 2026-05-09 09:28 | 51.74524 | -1.59193 | 260 ft | 19 kts | 253° |
| 2026-05-09 09:28 | 51.74489 | -1.59384 | 263 ft | 17 kts | 253° |
| 2026-05-09 09:28 | 51.74458 | -1.59558 | 260 ft | 15 kts | 253° |
| 2026-05-09 09:29 | 51.74430 | -1.59718 | 260 ft | 14 kts | 259° |
| 2026-05-09 09:29 | 51.74438 | -1.59857 | 260 ft | 12 kts | 296° |
| 2026-05-09 09:29 | 51.74473 | -1.59968 | 260 ft | 11 kts | 298° |
| 2026-05-09 09:29 | 51.74497 | -1.60075 | 260 ft | 10 kts | 266° |
| 2026-05-09 09:30 | 51.74485 | -1.60178 | 260 ft | 9 kts | 267° |
| 2026-05-09 09:30 | 51.74506 | -1.60268 | 260 ft | 9 kts | 317° |
| 2026-05-09 09:30 | 51.74558 | -1.60340 | 261 ft | 11 kts | 319° |
| 2026-05-09 09:30 | 51.74619 | -1.60356 | 261 ft | 6 kts | 45° |
| 2026-05-09 09:31 | 51.74630 | -1.60302 | 261 ft | 7 kts | 74° |
| 2026-05-09 09:31 | 51.74699 | -1.59923 | 259 ft | 75 kts | 73° |
| 2026-05-09 09:31 | 51.74921 | -1.58715 | 307 ft | 142 kts | 73° |
| 2026-05-09 09:32 | 51.75626 | -1.54885 | 1422 ft | 205 kts | 73° |
| 2026-05-09 09:32 | 51.76295 | -1.52840 | 2334 ft | 195 kts | 51° |
| 2026-05-09 09:32 | 51.77436 | -1.52089 | 2808 ft | 188 kts | 1° |
| 2026-05-09 09:32 | 51.78836 | -1.52966 | 2907 ft | 244 kts | 326° |
| 2026-05-09 09:33 | 51.80013 | -1.54901 | 2797 ft | 243 kts | 301° |
| 2026-05-09 09:33 | 51.80506 | -1.57412 | 2722 ft | 231 kts | 271° |
| 2026-05-09 09:33 | 51.80175 | -1.59876 | 3018 ft | 224 kts | 244° |
| 2026-05-09 09:33 | 51.79500 | -1.62240 | 3490 ft | 236 kts | 242° |
| 2026-05-09 09:34 | 51.78764 | -1.64623 | 3893 ft | 235 kts | 242° |
| 2026-05-09 09:34 | 51.78071 | -1.66986 | 4483 ft | 227 kts | 246° |
| 2026-05-09 09:34 | 51.77464 | -1.69499 | 5312 ft | 255 kts | 248° |
| 2026-05-09 09:36 | 51.77508 | -1.90571 | 10907 ft | 284 kts | 248° |
| 2026-05-09 09:36 | 51.76657 | -1.93507 | 11791 ft | 290 kts | 240° |
| 2026-05-09 09:36 | 51.75643 | -1.96308 | 12671 ft | 288 kts | 238° |
| 2026-05-09 09:37 | 51.74213 | -1.98552 | 13568 ft | 296 kts | 206° |
| 2026-05-09 09:37 | 51.72230 | -1.99663 | 14483 ft | 306 kts | 196° |
| 2026-05-09 09:37 | 51.70186 | -2.00566 | 15330 ft | 306 kts | 198° |
| 2026-05-09 09:37 | 51.68159 | -2.01647 | 16151 ft | 308 kts | 200° |
| 2026-05-09 09:38 | 51.66118 | -2.02775 | 17040 ft | 314 kts | 199° |
| 2026-05-09 09:38 | 51.64078 | -2.04048 | 17904 ft | 313 kts | 214° |
| 2026-05-09 09:38 | 51.62600 | -2.06557 | 18808 ft | 312 kts | 244° |
| 2026-05-09 09:38 | 51.62067 | -2.09918 | 19700 ft | 319 kts | 264° |
| 2026-05-09 09:39 | 51.61957 | -2.13542 | 20580 ft | 329 kts | 269° |
| 2026-05-09 09:39 | 51.62134 | -2.17242 | 21458 ft | 331 kts | 275° |
| 2026-05-09 09:39 | 51.62430 | -2.20958 | 22346 ft | 337 kts | 274° |
| 2026-05-09 09:39 | 51.62691 | -2.24706 | 23248 ft | 344 kts | 273° |
| 2026-05-09 09:40 | 51.62944 | -2.28561 | 24100 ft | 347 kts | 273° |
| 2026-05-09 09:40 | 51.63210 | -2.32463 | 24892 ft | 353 kts | 273° |
| 2026-05-09 09:40 | 51.63483 | -2.36440 | 25709 ft | 360 kts | 272° |
| 2026-05-09 09:40 | 51.63752 | -2.40433 | 26538 ft | 365 kts | 272° |
| 2026-05-09 09:41 | 51.64025 | -2.44528 | 27424 ft | 368 kts | 272° |
| 2026-05-09 09:41 | 51.64303 | -2.48644 | 28302 ft | 372 kts | 271° |
| 2026-05-09 09:41 | 51.64578 | -2.52816 | 29224 ft | 375 kts | 271° |
| 2026-05-09 09:41 | 51.64854 | -2.57009 | 30154 ft | 378 kts | 271° |
| 2026-05-09 09:42 | 51.65132 | -2.61235 | 30975 ft | 379 kts | 270° |
| 2026-05-09 09:42 | 51.65405 | -2.65413 | 31795 ft | 378 kts | 270° |
| 2026-05-09 09:42 | 51.65679 | -2.69692 | 32096 ft | 394 kts | 270° |
| 2026-05-09 09:42 | 51.65967 | -2.74208 | 32131 ft | 417 kts | 271° |
| 2026-05-09 09:43 | 51.66292 | -2.79001 | 32139 ft | 442 kts | 270° |
| 2026-05-09 09:43 | 51.66595 | -2.84010 | 32205 ft | 455 kts | 271° |
| 2026-05-09 09:43 | 51.66915 | -2.89046 | 32184 ft | 457 kts | 271° |
| 2026-05-09 09:44 | 51.67558 | -2.99238 | 32187 ft | 455 kts | 271° |
| 2026-05-09 09:44 | 51.68183 | -3.09396 | 32183 ft | 457 kts | 271° |
| 2026-05-09 09:45 | 51.68806 | -3.19623 | 32169 ft | 457 kts | 271° |
| 2026-05-09 09:45 | 51.69414 | -3.29786 | 32154 ft | 456 kts | 271° |
| 2026-05-09 09:46 | 51.70015 | -3.39958 | 32157 ft | 458 kts | 271° |
| 2026-05-09 09:46 | 51.70609 | -3.50116 | 32115 ft | 452 kts | 271° |
| 2026-05-09 09:47 | 51.71535 | -3.60209 | 32133 ft | 462 kts | 285° |
| 2026-05-09 09:47 | 51.73815 | -3.69990 | 32121 ft | 464 kts | 284° |
| 2026-05-09 09:48 | 51.75815 | -3.79808 | 32119 ft | 461 kts | 284° |